createdAt,value
2022-10-24T00:01:10.388Z,56.44
2022-10-24T00:03:37.480Z,56.29
2022-10-24T00:06:06.215Z,55.96
2022-10-24T00:08:34.512Z,56.05
2022-10-24T00:11:01.288Z,56.04
2022-10-24T00:13:28.384Z,56.22
2022-10-24T00:15:55.192Z,56.11
2022-10-24T00:18:22.228Z,56.32
2022-10-24T00:20:49.050Z,56.07
2022-10-24T00:23:16.075Z,55.86
2022-10-24T00:25:42.828Z,56.19
2022-10-24T00:28:09.906Z,55.97
2022-10-24T00:30:36.672Z,55.91
2022-10-24T00:33:03.825Z,56.01
2022-10-24T00:35:31.088Z,56.11
2022-10-24T00:37:58.152Z,55.93
2022-10-24T00:40:24.991Z,56.25
2022-10-24T00:42:52.092Z,56.14
2022-10-24T00:45:57.936Z,56.09
2022-10-24T00:48:31.427Z,55.91
2022-10-24T00:51:01.138Z,56.16
2022-10-24T00:53:28.319Z,55.97
2022-10-24T00:55:57.331Z,56.07
2022-10-24T00:58:26.195Z,55.92
2022-10-24T01:00:53.023Z,55.92
2022-10-24T01:03:20.079Z,56.10
2022-10-24T01:05:58.516Z,56.15
2022-10-24T01:08:31.443Z,56.37
2022-10-24T01:10:58.208Z,55.92
2022-10-24T01:13:27.997Z,56.13
2022-10-24T01:16:04.067Z,56.28
2022-10-24T01:18:34.772Z,56.11
2022-10-24T01:21:15.891Z,56.38
2022-10-24T01:23:50.726Z,56.35
2022-10-24T01:26:39.037Z,56.46
2022-10-24T01:29:34.646Z,56.13
2022-10-24T01:32:12.191Z,56.36
2022-10-24T01:34:48.918Z,56.47
2022-10-24T01:37:18.759Z,56.42
2022-10-24T01:39:51.267Z,56.44
2022-10-24T01:42:20.181Z,56.34
2022-10-24T01:44:49.414Z,56.21
2022-10-24T01:47:28.049Z,55.94
2022-10-24T01:50:06.383Z,55.98
2022-10-24T01:52:34.490Z,56.24
2022-10-24T01:55:01.425Z,55.91
2022-10-24T01:57:29.313Z,56.32
2022-10-24T01:59:56.225Z,56.38
2022-10-24T02:02:31.245Z,56.16
2022-10-24T02:05:07.081Z,56.49
2022-10-24T02:07:34.271Z,56.31
2022-10-24T02:10:04.232Z,56.33
2022-10-24T02:12:31.433Z,56.78
2022-10-24T02:15:02.095Z,56.41
2022-10-24T02:20:01.208Z,56.34
2022-10-24T02:22:28.186Z,56.62
2022-10-24T02:25:02.456Z,56.40
2022-10-24T02:27:33.196Z,56.40
2022-10-24T02:30:09.881Z,56.29
2022-10-24T02:32:39.340Z,56.29
2022-10-24T02:35:06.874Z,56.23
2022-10-24T02:37:35.004Z,56.46
2022-10-24T02:40:02.144Z,56.19
2022-10-24T02:45:00.837Z,56.27
2022-10-24T02:47:27.909Z,56.23
2022-10-24T02:49:54.760Z,56.19
2022-10-24T02:52:21.955Z,56.04
2022-10-24T02:54:48.701Z,56.10
2022-10-24T02:57:15.741Z,56.27
2022-10-24T02:59:42.476Z,56.25
2022-10-24T03:02:09.532Z,55.98
2022-10-24T03:04:36.307Z,56.06
2022-10-24T03:07:03.384Z,56.28
2022-10-24T03:09:30.131Z,56.38
2022-10-24T03:11:57.151Z,56.14
2022-10-24T03:14:23.887Z,56.20
2022-10-24T03:16:50.946Z,55.96
2022-10-24T03:19:17.747Z,56.08
2022-10-24T03:21:44.742Z,56.28
2022-10-24T03:24:11.527Z,55.99
2022-10-24T03:26:38.512Z,56.17
2022-10-24T03:29:05.351Z,56.15
2022-10-24T03:31:32.392Z,56.29
2022-10-24T03:33:59.184Z,56.27
2022-10-24T03:36:26.278Z,56.33
2022-10-24T03:38:53.027Z,56.35
2022-10-24T03:41:20.051Z,56.06
2022-10-24T03:43:46.806Z,56.52
2022-10-24T03:46:14.004Z,56.17
2022-10-24T03:48:40.808Z,56.93
2022-10-24T03:51:07.916Z,56.67
2022-10-24T03:53:34.936Z,56.82
2022-10-24T03:56:02.392Z,56.81
2022-10-24T03:58:29.183Z,56.49
2022-10-24T04:00:58.969Z,56.53
2022-10-24T04:03:28.980Z,56.85
2022-10-24T04:05:55.980Z,56.89
2022-10-24T04:08:22.792Z,56.92
2022-10-24T04:10:50.052Z,56.82
2022-10-24T04:13:16.807Z,57.30
2022-10-24T04:15:43.855Z,57.06
2022-10-24T04:18:10.813Z,57.18
2022-10-24T04:20:37.847Z,57.12
2022-10-24T04:23:04.777Z,57.21
2022-10-24T04:25:31.963Z,57.29
2022-10-24T04:27:58.756Z,57.56
2022-10-24T04:30:26.448Z,57.16
2022-10-24T04:32:53.273Z,56.89
2022-10-24T04:35:20.319Z,57.23
2022-10-24T04:37:47.083Z,57.28
2022-10-24T04:40:14.056Z,57.54
2022-10-24T04:42:40.866Z,57.35
2022-10-24T04:45:08.595Z,57.37
2022-10-24T04:47:35.439Z,57.31
2022-10-24T04:50:02.575Z,57.56
2022-10-24T04:52:29.375Z,57.42
2022-10-24T04:54:56.399Z,57.45
2022-10-24T04:57:23.179Z,57.38
2022-10-24T04:59:50.128Z,57.39
2022-10-24T05:02:17.013Z,57.82
2022-10-24T05:04:44.174Z,57.56
2022-10-24T05:07:10.943Z,57.67
2022-10-24T05:09:37.967Z,57.45
2022-10-24T05:12:05.055Z,57.45
2022-10-24T05:14:32.171Z,57.53
2022-10-24T05:16:59.014Z,57.83
2022-10-24T05:19:26.087Z,57.65
2022-10-24T05:21:52.831Z,57.47
2022-10-24T05:24:19.859Z,57.68
2022-10-24T05:26:46.605Z,57.67
2022-10-24T05:29:13.584Z,57.78
2022-10-24T05:31:40.940Z,57.95
2022-10-24T05:34:07.907Z,57.81
2022-10-24T05:36:34.861Z,58.02
2022-10-24T05:39:01.902Z,57.94
2022-10-24T05:41:28.754Z,57.91
2022-10-24T05:43:55.771Z,57.76
2022-10-24T05:46:22.558Z,57.91
2022-10-24T05:48:49.558Z,58.48
2022-10-24T05:51:16.394Z,58.45
2022-10-24T05:53:43.407Z,58.31
2022-10-24T05:56:10.337Z,58.22
2022-10-24T05:58:37.390Z,58.47
2022-10-24T06:01:04.731Z,58.29
2022-10-24T06:03:31.823Z,58.47
2022-10-24T06:06:03.457Z,58.27
2022-10-24T06:08:30.638Z,58.26
2022-10-24T06:10:57.413Z,58.47
2022-10-24T06:13:24.439Z,58.26
2022-10-24T06:15:51.380Z,58.81
2022-10-24T06:18:18.355Z,58.34
2022-10-24T06:20:45.303Z,58.59
2022-10-24T06:23:12.316Z,59.19
2022-10-24T06:25:42.180Z,58.94
2022-10-24T06:30:41.748Z,59.04
2022-10-24T06:33:08.751Z,59.13
2022-10-24T06:35:35.847Z,59.00
2022-10-24T06:38:02.872Z,59.42
2022-10-24T06:40:29.651Z,59.00
2022-10-24T06:42:56.710Z,59.04
2022-10-24T06:45:24.238Z,59.15
2022-10-24T06:47:54.052Z,59.45
2022-10-24T06:50:21.459Z,59.23
2022-10-24T06:52:48.455Z,59.41
2022-10-24T06:55:15.427Z,59.08
2022-10-24T06:57:42.614Z,59.13
2022-10-24T07:00:10.451Z,59.41
2022-10-24T07:02:37.525Z,59.35
2022-10-24T07:05:04.603Z,59.10
2022-10-24T07:07:31.854Z,59.17
2022-10-24T07:09:58.711Z,59.19
2022-10-24T07:12:25.975Z,58.92
2022-10-24T07:14:52.747Z,59.22
2022-10-24T07:17:20.126Z,59.24
2022-10-24T07:19:52.606Z,59.41
2022-10-24T07:22:19.647Z,59.49
2022-10-24T07:24:46.459Z,59.31
2022-10-24T07:27:13.446Z,59.38
2022-10-24T07:29:40.208Z,58.88
2022-10-24T07:32:07.187Z,58.86
2022-10-24T07:34:34.882Z,59.43
2022-10-24T07:37:04.137Z,59.09
2022-10-24T07:39:30.926Z,59.37
2022-10-24T07:41:57.918Z,59.45
2022-10-24T07:44:24.770Z,59.55
2022-10-24T07:46:51.791Z,59.35
2022-10-24T07:49:18.573Z,59.58
2022-10-24T07:51:45.613Z,59.46
2022-10-24T07:54:12.418Z,59.56
2022-10-24T07:56:39.443Z,59.48
2022-10-24T07:59:09.469Z,59.47
2022-10-24T08:01:40.852Z,59.14
2022-10-24T08:04:07.684Z,59.42
2022-10-24T08:06:34.958Z,59.42
2022-10-24T08:09:02.030Z,59.71
2022-10-24T08:11:29.303Z,59.74
2022-10-24T08:13:57.353Z,60.22
2022-10-24T08:16:24.614Z,59.73
2022-10-24T08:18:52.402Z,59.88
2022-10-24T08:21:20.289Z,59.78
2022-10-24T08:23:47.983Z,59.38
2022-10-24T08:26:16.891Z,59.23
2022-10-24T08:28:43.877Z,59.47
2022-10-24T08:31:12.774Z,59.45
2022-10-24T08:33:39.754Z,59.23
2022-10-24T08:36:19.365Z,59.86
2022-10-24T08:38:46.125Z,59.39
2022-10-24T08:41:16.565Z,59.26
2022-10-24T08:43:43.300Z,59.04
2022-10-24T08:46:52.232Z,59.49
2022-10-24T08:49:31.332Z,59.54
2022-10-24T08:52:04.081Z,59.48
2022-10-24T08:54:36.804Z,59.76
2022-10-24T08:57:04.186Z,59.29
2022-10-24T08:59:31.976Z,59.51
2022-10-24T09:02:04.146Z,59.74
2022-10-24T09:04:36.627Z,59.37
2022-10-24T09:07:03.733Z,59.29
2022-10-24T09:09:39.325Z,59.26
2022-10-24T09:12:12.371Z,59.32
2022-10-24T09:14:40.755Z,59.11
2022-10-24T09:17:25.163Z,59.31
2022-10-24T09:20:23.530Z,59.15
2022-10-24T09:22:50.756Z,58.85
2022-10-24T09:25:21.904Z,58.80
2022-10-24T09:27:49.443Z,58.89
2022-10-24T09:30:18.627Z,58.32
2022-10-24T09:32:45.684Z,58.63
2022-10-24T09:35:24.018Z,58.51
2022-10-24T09:37:55.233Z,58.50
2022-10-24T09:40:30.501Z,58.64
2022-10-24T09:43:04.303Z,59.00
2022-10-24T09:45:37.485Z,58.69
2022-10-24T09:48:15.118Z,58.52
2022-10-24T09:50:42.765Z,58.78
2022-10-24T09:53:20.945Z,58.73
2022-10-24T09:55:48.733Z,58.73
2022-10-24T09:58:20.787Z,58.82
2022-10-24T10:01:17.054Z,58.48
2022-10-24T10:03:44.347Z,58.25
2022-10-24T10:06:18.825Z,58.29
2022-10-24T10:08:56.269Z,58.29
2022-10-24T10:11:35.166Z,58.54
2022-10-24T10:14:02.957Z,58.48
2022-10-24T10:16:34.546Z,58.54
2022-10-24T10:19:05.569Z,58.07
2022-10-24T10:21:58.300Z,58.39
2022-10-24T10:24:42.243Z,58.51
2022-10-24T10:27:32.537Z,58.18
2022-10-24T10:30:11.612Z,58.24
2022-10-24T10:33:17.616Z,58.24
2022-10-24T10:35:55.896Z,58.07
2022-10-24T10:38:35.065Z,58.02
2022-10-24T10:41:25.128Z,58.14
2022-10-24T10:44:13.266Z,57.60
2022-10-24T10:47:02.459Z,57.94
2022-10-24T10:49:39.907Z,57.99
2022-10-24T10:52:09.805Z,57.75
2022-10-24T10:55:14.341Z,58.26
2022-10-24T10:58:13.126Z,57.69
2022-10-24T11:00:58.841Z,57.54
2022-10-24T11:03:30.887Z,57.70
2022-10-24T11:06:16.407Z,57.29
2022-10-24T11:09:04.024Z,57.27
2022-10-24T11:11:32.212Z,57.38
2022-10-24T11:14:30.020Z,57.28
2022-10-24T11:16:59.048Z,57.00
2022-10-24T11:19:27.887Z,56.88
2022-10-24T11:21:56.645Z,56.74
2022-10-24T11:24:23.647Z,56.83
2022-10-24T11:26:57.281Z,56.88
2022-10-24T11:29:42.104Z,56.74
2022-10-24T11:32:26.468Z,57.05
2022-10-24T11:34:59.897Z,56.84
2022-10-24T11:37:54.800Z,56.66
2022-10-24T11:40:22.764Z,56.40
2022-10-24T11:42:55.907Z,56.49
2022-10-24T11:45:28.775Z,56.72
2022-10-24T11:47:55.627Z,56.37
2022-10-24T11:50:25.857Z,56.30
2022-10-24T11:52:54.856Z,55.96
2022-10-24T11:55:24.347Z,55.72
2022-10-24T11:57:53.742Z,56.05
2022-10-24T12:00:26.163Z,56.16
2022-10-24T12:03:11.683Z,55.66
2022-10-24T12:06:02.872Z,55.85
2022-10-24T12:08:54.999Z,55.68
2022-10-24T12:11:21.974Z,55.71
2022-10-24T12:14:07.248Z,55.59
2022-10-24T12:16:57.312Z,55.71
2022-10-24T12:19:24.098Z,55.18
2022-10-24T12:21:55.110Z,55.58
2022-10-24T12:24:30.304Z,55.33
2022-10-24T12:27:02.783Z,55.46
2022-10-24T12:29:33.598Z,55.16
2022-10-24T12:32:24.075Z,55.13
2022-10-24T12:37:49.171Z,55.30
2022-10-24T12:40:58.724Z,55.17
2022-10-24T12:43:38.546Z,55.45
2022-10-24T12:46:15.888Z,55.07
2022-10-24T12:48:58.070Z,55.53
2022-10-24T12:51:40.330Z,55.07
2022-10-24T12:54:13.548Z,55.31
2022-10-24T12:56:49.656Z,54.68
2022-10-24T12:59:20.902Z,54.79
2022-10-24T13:01:49.044Z,54.62
2022-10-24T13:04:35.169Z,54.61
2022-10-24T13:07:28.777Z,54.69
2022-10-24T13:10:01.954Z,54.65
2022-10-24T13:13:03.795Z,54.46
2022-10-24T13:15:57.754Z,54.46
2022-10-24T13:18:31.206Z,54.82
2022-10-24T13:21:31.333Z,54.93
2022-10-24T13:24:16.599Z,54.97
2022-10-24T13:26:47.887Z,54.49
2022-10-24T13:29:23.955Z,54.49
2022-10-24T13:31:51.691Z,54.61
2022-10-24T13:34:30.644Z,54.56
2022-10-24T13:37:10.877Z,54.81
2022-10-24T13:39:41.322Z,54.58
2022-10-24T13:42:19.597Z,54.99
2022-10-24T13:44:48.525Z,54.72
2022-10-24T13:47:21.449Z,54.39
2022-10-24T13:49:54.857Z,54.73
2022-10-24T13:52:29.928Z,54.75
2022-10-24T13:55:00.354Z,54.86
2022-10-24T13:57:28.953Z,54.81
2022-10-24T13:59:57.592Z,54.69
2022-10-24T14:02:29.772Z,54.69
2022-10-24T14:04:59.311Z,54.49
2022-10-24T14:07:28.407Z,54.62
2022-10-24T14:10:02.736Z,54.23
2022-10-24T14:12:30.991Z,54.47
2022-10-24T14:14:58.856Z,54.29
2022-10-24T14:17:28.791Z,54.05
2022-10-24T14:20:08.855Z,54.21
2022-10-24T14:22:39.738Z,54.53
2022-10-24T14:25:28.575Z,54.09
2022-10-24T14:27:58.379Z,54.45
2022-10-24T14:30:28.479Z,54.70
2022-10-24T14:33:13.781Z,54.38
2022-10-24T14:35:40.905Z,54.40
2022-10-24T14:38:09.869Z,54.75
2022-10-24T14:40:36.729Z,54.68
2022-10-24T14:43:03.779Z,54.52
2022-10-24T14:45:30.709Z,54.49
2022-10-24T14:47:58.961Z,54.37
2022-10-24T14:50:39.520Z,54.65
2022-10-24T14:53:06.676Z,54.34
2022-10-24T14:55:33.516Z,54.25
2022-10-24T14:58:00.582Z,54.40
2022-10-24T15:00:28.692Z,54.73
2022-10-24T15:02:57.522Z,54.59
2022-10-24T15:05:24.528Z,54.19
2022-10-24T15:08:23.461Z,54.48
2022-10-24T15:10:50.472Z,54.72
2022-10-24T15:13:21.274Z,54.44
2022-10-24T15:15:52.294Z,54.28
2022-10-24T15:18:27.135Z,54.54
2022-10-24T15:21:06.304Z,54.52
2022-10-24T15:23:35.480Z,54.59
2022-10-24T15:26:20.493Z,54.42
2022-10-24T15:29:08.620Z,54.68
2022-10-24T15:31:39.918Z,54.66
2022-10-24T15:34:08.880Z,54.79
2022-10-24T15:36:36.327Z,55.00
2022-10-24T15:39:05.996Z,54.46
2022-10-24T15:41:32.945Z,54.67
2022-10-24T15:44:00.623Z,54.65
2022-10-24T15:46:28.164Z,54.44
2022-10-24T15:48:55.229Z,55.11
2022-10-24T15:51:23.219Z,55.04
2022-10-24T15:53:50.410Z,54.67
2022-10-24T15:56:17.430Z,54.79
2022-10-24T15:58:44.583Z,55.10
2022-10-24T16:01:22.649Z,54.55
2022-10-24T16:03:49.701Z,54.72
2022-10-24T16:06:16.466Z,54.58
2022-10-24T16:08:43.466Z,55.08
2022-10-24T16:11:11.693Z,54.73
2022-10-24T16:13:38.702Z,54.72
2022-10-24T16:16:05.870Z,55.14
2022-10-24T16:18:34.406Z,55.03
2022-10-24T16:21:01.570Z,54.96
2022-10-24T16:23:28.594Z,55.25
2022-10-24T16:25:55.353Z,54.94
2022-10-24T16:28:23.905Z,54.88
2022-10-24T16:30:50.861Z,55.43
2022-10-24T16:33:20.146Z,54.82
2022-10-24T16:35:49.938Z,55.38
2022-10-24T16:38:16.945Z,55.05
2022-10-24T16:40:46.909Z,55.36
2022-10-24T16:43:15.302Z,55.32
2022-10-24T16:45:42.799Z,55.37
2022-10-24T16:48:10.178Z,55.09
2022-10-24T16:50:36.965Z,55.41
2022-10-24T16:53:05.196Z,55.42
2022-10-24T16:55:32.120Z,55.51
2022-10-24T16:57:59.181Z,55.48
2022-10-24T17:00:26.101Z,55.52
2022-10-24T17:02:54.256Z,55.19
2022-10-24T17:05:22.915Z,55.46
2022-10-24T17:07:49.994Z,55.26
2022-10-24T17:10:20.626Z,55.52
2022-10-24T17:12:50.866Z,55.12
2022-10-24T17:15:21.106Z,55.32
2022-10-24T17:17:49.616Z,55.64
2022-10-24T17:20:17.416Z,55.35
2022-10-24T17:22:45.229Z,55.65
2022-10-24T17:25:23.196Z,55.59
2022-10-24T17:27:50.375Z,55.08
2022-10-24T17:30:27.423Z,55.46
2022-10-24T17:32:54.502Z,55.21
2022-10-24T17:35:22.378Z,55.32
2022-10-24T17:37:56.225Z,55.35
2022-10-24T17:40:25.313Z,55.22
2022-10-24T17:42:52.581Z,55.38
2022-10-24T17:45:21.205Z,55.28
2022-10-24T17:47:48.608Z,55.66
2022-10-24T17:50:15.533Z,55.42
2022-10-24T17:52:43.774Z,55.41
2022-10-24T17:55:41.021Z,55.68
2022-10-24T17:58:08.341Z,55.79
2022-10-24T18:00:35.261Z,55.72
2022-10-24T18:03:02.325Z,55.57
2022-10-24T18:05:29.879Z,55.85
2022-10-24T18:07:58.084Z,55.28
2022-10-24T18:10:24.979Z,55.62
2022-10-24T18:12:52.007Z,55.81
2022-10-24T18:15:21.915Z,55.40
2022-10-24T18:17:49.262Z,55.65
2022-10-24T18:20:16.350Z,55.17
2022-10-24T18:22:43.958Z,55.46
2022-10-24T18:25:11.952Z,55.56
2022-10-24T18:27:39.484Z,55.25
2022-10-24T18:30:06.834Z,55.88
2022-10-24T18:32:34.022Z,55.72
2022-10-24T18:35:00.799Z,55.84
2022-10-24T18:37:28.054Z,55.86
2022-10-24T18:39:55.164Z,55.78
2022-10-24T18:42:34.345Z,55.54
2022-10-24T18:45:01.558Z,55.59
2022-10-24T18:47:29.398Z,55.65
2022-10-24T18:49:57.406Z,55.53
2022-10-24T18:52:48.590Z,55.86
2022-10-24T18:55:20.944Z,55.63
2022-10-24T18:57:48.893Z,55.70
2022-10-24T19:00:26.589Z,55.52
2022-10-24T19:02:59.613Z,55.91
2022-10-24T19:05:41.313Z,55.52
2022-10-24T19:08:16.146Z,55.54
2022-10-24T19:10:43.309Z,56.27
2022-10-24T19:13:10.515Z,56.47
2022-10-24T19:15:39.210Z,55.84
2022-10-24T19:18:06.662Z,55.71
2022-10-24T19:20:35.132Z,56.22
2022-10-24T19:23:05.201Z,57.09
2022-10-24T19:25:32.934Z,57.25
2022-10-24T19:27:59.914Z,57.03
2022-10-24T19:30:26.678Z,57.13
2022-10-24T19:32:53.652Z,57.59
2022-10-24T19:35:20.474Z,57.44
2022-10-24T19:37:47.860Z,57.73
2022-10-24T19:40:14.853Z,57.27
2022-10-24T19:42:42.060Z,57.50
2022-10-24T19:45:09.089Z,57.41
2022-10-24T19:47:36.129Z,57.42
2022-10-24T19:50:02.952Z,57.83
2022-10-24T19:52:29.972Z,57.76
2022-10-24T19:54:56.770Z,57.96
2022-10-24T19:57:23.784Z,57.51
2022-10-24T19:59:50.540Z,57.30
2022-10-24T20:02:17.584Z,57.38
2022-10-24T20:04:48.133Z,57.61
2022-10-24T20:07:17.731Z,58.20
2022-10-24T20:09:44.749Z,57.64
2022-10-24T20:12:11.869Z,57.65
2022-10-24T20:14:38.646Z,57.34
2022-10-24T20:17:05.661Z,57.70
2022-10-24T20:19:32.397Z,57.86
2022-10-24T20:22:02.338Z,57.72
2022-10-24T20:24:30.605Z,58.04
2022-10-24T20:26:57.635Z,57.60
2022-10-24T20:29:24.480Z,57.80
2022-10-24T20:31:51.573Z,57.64
2022-10-24T20:34:18.333Z,57.95
2022-10-24T20:36:47.291Z,58.06
2022-10-24T20:39:16.070Z,58.12
2022-10-24T20:41:43.290Z,57.90
2022-10-24T20:44:11.036Z,58.14
2022-10-24T20:46:38.079Z,57.98
2022-10-24T20:49:05.089Z,57.77
2022-10-24T20:51:32.168Z,58.30
2022-10-24T20:53:59.007Z,58.03
2022-10-24T20:56:26.750Z,57.73
2022-10-24T20:58:54.604Z,58.04
2022-10-24T21:01:26.701Z,58.14
2022-10-24T21:03:54.174Z,57.90
2022-10-24T21:06:22.003Z,58.52
2022-10-24T21:08:49.780Z,58.13
2022-10-24T21:11:24.578Z,57.90
2022-10-24T21:14:08.103Z,58.43
2022-10-24T21:16:35.289Z,58.60
2022-10-24T21:19:02.335Z,58.05
2022-10-24T21:21:29.374Z,57.98
2022-10-24T21:24:03.930Z,58.53
2022-10-24T21:26:35.006Z,57.95
2022-10-24T21:29:14.584Z,58.22
2022-10-24T21:31:49.727Z,57.99
2022-10-24T21:34:17.148Z,57.95
2022-10-24T21:36:44.220Z,57.87
2022-10-24T21:39:14.851Z,57.88
2022-10-24T21:41:41.992Z,58.00
2022-10-24T21:44:08.907Z,58.20
2022-10-24T21:46:35.975Z,58.42
2022-10-24T21:49:02.779Z,58.29
2022-10-24T21:51:32.840Z,58.49
2022-10-24T21:54:20.715Z,58.23
2022-10-24T21:56:47.841Z,58.39
2022-10-24T21:59:16.446Z,58.45
2022-10-24T22:01:44.203Z,58.60
2022-10-24T22:04:11.539Z,58.23
2022-10-24T22:06:38.878Z,58.37
2022-10-24T22:09:06.924Z,58.32
2022-10-24T22:11:34.946Z,58.71
2022-10-24T22:14:02.003Z,58.22
2022-10-24T22:16:29.858Z,58.59
2022-10-24T22:18:57.154Z,58.51
2022-10-24T22:21:25.530Z,58.58
2022-10-24T22:23:52.347Z,58.22
2022-10-24T22:26:19.378Z,58.53
2022-10-24T22:28:46.179Z,58.29
2022-10-24T22:31:13.582Z,58.12
2022-10-24T22:33:40.638Z,58.45
2022-10-24T22:36:36.843Z,58.56
2022-10-24T22:39:04.798Z,58.32
2022-10-24T22:41:32.102Z,58.39
2022-10-24T22:43:59.074Z,58.63
2022-10-24T22:46:26.092Z,58.57
2022-10-24T22:48:55.437Z,58.38
2022-10-24T22:51:22.643Z,58.57
2022-10-24T22:53:49.641Z,58.65
2022-10-24T22:56:22.896Z,58.76
2022-10-24T22:58:49.884Z,58.56
2022-10-24T23:01:52.517Z,58.97
2022-10-24T23:04:39.119Z,58.62
2022-10-24T23:07:22.534Z,58.47
2022-10-24T23:09:52.291Z,58.84
2022-10-24T23:12:20.446Z,58.92
2022-10-24T23:14:47.842Z,58.55
2022-10-24T23:17:24.971Z,58.64
2022-10-24T23:19:52.058Z,58.83
2022-10-24T23:22:29.698Z,59.02
2022-10-24T23:24:58.435Z,58.72
2022-10-24T23:27:25.386Z,58.67
2022-10-24T23:29:52.398Z,58.62
2022-10-24T23:32:23.070Z,58.40
2022-10-24T23:34:50.521Z,58.58
2022-10-24T23:37:38.394Z,58.46
2022-10-24T23:40:14.394Z,58.58
2022-10-24T23:42:41.454Z,59.00
2022-10-24T23:45:15.496Z,58.80
2022-10-24T23:47:51.498Z,58.61
2022-10-24T23:50:30.625Z,58.66
2022-10-24T23:53:04.881Z,58.97
2022-10-24T23:55:32.163Z,58.93
2022-10-24T23:58:01.104Z,58.98
